This is the latest recevied weather packets stored in our database for station/object SP1BMW-13. If no packets are shown the sender has not sent any weather packets the latest 10 day(s).
| Time | Temp. | Humidity | Pressure | Rain* | Wind** | Luminosity | Snow |
|---|---|---|---|---|---|---|---|
| 1778230981 | 12.22° C | 53% | 1020.1 hPa | 0 mm | 1.79 m/s, 268° | 323 W/m² | - |
| 1778230919 | 12.22° C | 52% | 1020.3 hPa | 0 mm | 1.79 m/s, 324° | 321 W/m² | - |
| 1778230860 | 12.22° C | 53% | 1020.3 hPa | 0 mm | 1.79 m/s, 321° | 320 W/m² | - |
| 1778230800 | 12.22° C | 53% | 1020.2 hPa | 0 mm | 1.34 m/s, 293° | 321 W/m² | - |
| 1778230739 | 12.22° C | 52% | 1020.1 hPa | 0 mm | 1.79 m/s, 62° | 322 W/m² | - |
| 1778230680 | 12.22° C | 52% | 1020.1 hPa | 0 mm | 1.34 m/s, 36° | 322 W/m² | - |
| 1778230620 | 12.22° C | 52% | 1020.1 hPa | 0 mm | 1.34 m/s, 333° | 322 W/m² | - |
| 1778230559 | 12.78° C | 51% | 1020.2 hPa | 0 mm | 1.79 m/s, 358° | 320 W/m² | - |
| 1778230499 | 12.78° C | 52% | 1020.2 hPa | 0 mm | 0.89 m/s, 305° | 318 W/m² | - |
| 1778230440 | 12.78° C | 52% | 1020 hPa | 0 mm | 0 m/s | 318 W/m² | - |
| 1778230379 | 12.78° C | 49% | 1020.1 hPa | 0 mm | 1.34 m/s, 328° | 324 W/m² | - |
| 1778230320 | 12.78° C | 51% | 1020.1 hPa | 0 mm | 1.34 m/s, 331° | 329 W/m² | - |
| 1778230259 | 12.78° C | 52% | 1020.1 hPa | 0 mm | 0.45 m/s, 45° | 336 W/m² | - |
| 1778230199 | 12.78° C | 50% | 1020.1 hPa | 0 mm | 0 m/s | 342 W/m² | - |
| 1778230139 | 12.78° C | 53% | 1019.9 hPa | 0 mm | 0.45 m/s, 21° | 355 W/m² | - |
| 1778230080 | 12.78° C | 52% | 1020.1 hPa | 0 mm | 0.45 m/s, 354° | 387 W/m² | - |
| 1778230019 | 12.78° C | 51% | 1019.8 hPa | 0 mm | 1.34 m/s, 61° | 372 W/m² | - |
| 1778229960 | 12.78° C | 51% | 1020.1 hPa | 0 mm | 0.45 m/s, 73° | 366 W/m² | - |
| 1778229899 | 12.78° C | 50% | 1020 hPa | 0 mm | 0.45 m/s, 48° | 369 W/m² | - |
| 1778229839 | 12.78° C | 53% | 1020.1 hPa | 0 mm | 1.34 m/s, 67° | 370 W/m² | - |
| 1778229779 | 12.22° C | 54% | 1019.9 hPa | 0 mm | 0.45 m/s, 56° | 378 W/m² | - |
| 1778229720 | 12.22° C | 52% | 1020.2 hPa | 0 mm | 0.45 m/s, 345° | 401 W/m² | - |
| 1778229660 | 12.22° C | 54% | 1020.2 hPa | 0 mm | 0 m/s | 403 W/m² | - |
| 1778229600 | 12.22° C | 54% | 1020.1 hPa | 0 mm | 0.89 m/s, 18° | 422 W/m² | - |
| 1778229539 | 12.22° C | 53% | 1020 hPa | 0 mm | 0.89 m/s, 34° | 421 W/m² | - |
* Rain latest hour (hover to see other rain measurements)
** Current wind speed in m/s (hover to see current wind gust speed)